createdAt,value
2019-01-29T00:01:19.801Z,94926.19
2019-01-29T00:03:46.868Z,94927.22
2019-01-29T00:06:13.913Z,94931.48
2019-01-29T00:08:40.965Z,94939.93
2019-01-29T00:11:08.015Z,94941.55
2019-01-29T00:13:35.050Z,94944.50
2019-01-29T00:16:02.111Z,94948.77
2019-01-29T00:18:29.148Z,94952.73
2019-01-29T00:20:56.200Z,94950.30
2019-01-29T00:23:23.286Z,94954.27
2019-01-29T00:25:50.336Z,94953.97
2019-01-29T00:28:17.393Z,94969.34
2019-01-29T00:30:44.440Z,94969.55
2019-01-29T00:33:11.492Z,94973.01
2019-01-29T00:35:38.554Z,94976.47
2019-01-29T00:38:05.668Z,94981.16
2019-01-29T00:40:32.700Z,94985.37
2019-01-29T00:42:59.775Z,94985.87
2019-01-29T00:45:26.826Z,94988.95
2019-01-29T00:47:53.883Z,94991.89
2019-01-29T00:50:20.952Z,94999.02
2019-01-29T00:52:48.012Z,95001.16
2019-01-29T00:55:15.066Z,94994.33
2019-01-29T00:57:42.133Z,95006.44
2019-01-29T01:00:15.174Z,95009.99
2019-01-29T01:02:42.236Z,95014.98
2019-01-29T01:05:09.410Z,95019.46
2019-01-29T01:07:36.433Z,95024.55
2019-01-29T01:10:04.400Z,95027.77
2019-01-29T01:12:31.426Z,95018.44
2019-01-29T01:14:58.473Z,95032.69
2019-01-29T01:17:25.758Z,95030.77
2019-01-29T01:19:52.840Z,95033.11
2019-01-29T01:22:19.890Z,95037.98
2019-01-29T01:24:47.444Z,95037.47
2019-01-29T01:27:14.501Z,95037.17
2019-01-29T01:29:41.550Z,95047.03
2019-01-29T01:32:08.596Z,95040.42
2019-01-29T01:34:35.632Z,95047.30
2019-01-29T01:37:02.677Z,95050.77
2019-01-29T01:39:29.738Z,95052.90
2019-01-29T01:41:56.787Z,95054.22
2019-01-29T01:44:23.853Z,95054.73
2019-01-29T01:46:50.907Z,95052.84
2019-01-29T01:51:57.068Z,95053.55
2019-01-29T01:54:24.152Z,95065.25
2019-01-29T01:56:51.199Z,95065.77
2019-01-29T01:59:18.286Z,95068.62
2019-01-29T02:01:45.376Z,95060.69
2019-01-29T02:04:12.419Z,95072.59
2019-01-29T02:06:39.460Z,95077.06
2019-01-29T02:09:07.686Z,95074.72
2019-01-29T02:11:34.763Z,95079.20
2019-01-29T02:14:01.829Z,95078.48
2019-01-29T02:16:28.901Z,95075.09
2019-01-29T02:18:55.948Z,95079.06
2019-01-29T02:21:23.021Z,95083.27
2019-01-29T02:23:50.060Z,95081.12
2019-01-29T02:26:17.121Z,95091.11
2019-01-29T02:28:44.154Z,95095.19
2019-01-29T02:31:11.230Z,95098.66
2019-01-29T02:33:38.263Z,95101.86
2019-01-29T02:36:05.320Z,95108.48
2019-01-29T02:38:32.380Z,95110.12
2019-01-29T02:40:59.462Z,95114.49
2019-01-29T02:43:26.506Z,95118.25
2019-01-29T02:45:53.646Z,95122.02
2019-01-29T02:48:20.650Z,95121.00
2019-01-29T02:50:47.704Z,95123.23
2019-01-29T02:53:18.368Z,95128.02
2019-01-29T02:55:43.691Z,95130.16
2019-01-29T02:58:10.754Z,95136.77
2019-01-29T03:00:37.904Z,95136.77
2019-01-29T03:03:04.965Z,95144.70
2019-01-29T03:05:32.002Z,95157.20
2019-01-29T03:07:59.068Z,95154.26
2019-01-29T03:10:26.401Z,95146.53
2019-01-29T03:12:53.474Z,95149.38
2019-01-29T03:15:23.510Z,95152.33
2019-01-29T03:17:50.570Z,95152.02
2019-01-29T03:20:17.724Z,95158.64
2019-01-29T03:22:44.796Z,95166.77
2019-01-29T03:25:12.264Z,95164.84
2019-01-29T03:27:39.527Z,95171.35
2019-01-29T03:30:08.760Z,95178.70
2019-01-29T03:32:35.799Z,95181.86
2019-01-29T03:35:03.716Z,95180.44
2019-01-29T03:37:30.755Z,95185.21
2019-01-29T03:39:57.825Z,95183.89
2019-01-29T03:42:24.859Z,95187.45
2019-01-29T03:44:51.896Z,95191.62
2019-01-29T03:47:18.936Z,95189.88
2019-01-29T03:49:45.996Z,95196.19
2019-01-29T03:52:13.041Z,95206.56
2019-01-29T03:54:40.094Z,95210.22
2019-01-29T03:57:07.177Z,95210.73
2019-01-29T03:59:34.223Z,95208.91
2019-01-29T04:02:01.290Z,95214.70
2019-01-29T04:04:28.342Z,95221.31
2019-01-29T04:06:55.427Z,95213.78
2019-01-29T04:09:22.463Z,95213.78
2019-01-29T04:11:49.525Z,95205.36
2019-01-29T04:14:16.574Z,95218.18
2019-01-29T04:16:43.629Z,95222.34
2019-01-29T04:19:10.682Z,95219.80
2019-01-29T04:21:37.719Z,95217.35
2019-01-29T04:24:04.777Z,95223.14
2019-01-29T04:26:31.847Z,95226.09
2019-01-29T04:28:58.933Z,95219.57
2019-01-29T04:31:25.982Z,95215.42
2019-01-29T04:33:53.029Z,95230.05
2019-01-29T04:36:20.080Z,95230.95
2019-01-29T04:38:47.149Z,95232.05
2019-01-29T04:41:14.180Z,95241.41
2019-01-29T04:43:41.249Z,95250.88
2019-01-29T04:46:08.298Z,95250.88
2019-01-29T04:48:35.368Z,95252.81
2019-01-29T04:51:02.402Z,95253.74
2019-01-29T04:53:29.476Z,95258.02
2019-01-29T04:55:56.510Z,95249.36
2019-01-29T04:58:23.601Z,95254.66
2019-01-29T05:00:50.644Z,95260.66
2019-01-29T05:03:17.686Z,95255.38
2019-01-29T05:05:44.750Z,95255.38
2019-01-29T05:08:11.799Z,95268.38
2019-01-29T05:10:38.868Z,95268.38
2019-01-29T05:13:05.912Z,95270.41
2019-01-29T05:15:32.986Z,95268.17
2019-01-29T05:18:00.046Z,95269.99
2019-01-29T05:20:27.098Z,95272.02
2019-01-29T05:22:54.110Z,95275.96
2019-01-29T05:25:21.265Z,95280.63
2019-01-29T05:27:48.317Z,95280.63
2019-01-29T05:30:22.488Z,95283.98
2019-01-29T05:32:49.715Z,95284.45
2019-01-29T05:35:16.779Z,95287.09
2019-01-29T05:37:43.851Z,95287.09
2019-01-29T05:40:12.988Z,95276.22
2019-01-29T05:42:40.039Z,95276.22
2019-01-29T05:45:08.921Z,95286.31
2019-01-29T05:47:36.026Z,95290.38
2019-01-29T05:50:04.078Z,95296.28
2019-01-29T05:52:31.151Z,95299.35
2019-01-29T05:54:58.212Z,95297.30
2019-01-29T05:57:25.242Z,95291.62
2019-01-29T05:59:52.298Z,95297.52
2019-01-29T06:02:19.383Z,95295.80
2019-01-29T06:04:46.432Z,95297.34
2019-01-29T06:07:13.465Z,95289.11
2019-01-29T06:09:40.556Z,95296.95
2019-01-29T06:14:47.441Z,95293.19
2019-01-29T06:17:14.497Z,95301.73
2019-01-29T06:19:41.545Z,95310.16
2019-01-29T06:22:08.632Z,95308.84
2019-01-29T06:24:35.713Z,95307.20
2019-01-29T06:27:02.869Z,95307.71
2019-01-29T06:29:29.923Z,95314.24
2019-01-29T06:31:57.021Z,95314.95
2019-01-29T06:34:24.055Z,95315.73
2019-01-29T06:36:51.113Z,95314.32
2019-01-29T06:39:18.141Z,95322.20
2019-01-29T06:41:45.232Z,95322.40
2019-01-29T06:44:12.301Z,95326.95
2019-01-29T06:46:39.375Z,95330.05
2019-01-29T06:49:06.526Z,95340.20
2019-01-29T06:51:33.635Z,95346.73
2019-01-29T06:54:00.779Z,95345.20
2019-01-29T06:56:27.939Z,95346.73
2019-01-29T06:58:55.094Z,95348.98
2019-01-29T07:01:22.188Z,95351.51
2019-01-29T07:03:49.276Z,95350.27
2019-01-29T07:06:16.362Z,95357.05
2019-01-29T07:08:43.432Z,95360.28
2019-01-29T07:11:10.482Z,95368.86
2019-01-29T07:13:37.534Z,95363.08
2019-01-29T07:16:27.186Z,95368.67
2019-01-29T07:19:13.907Z,95367.77
2019-01-29T07:21:42.477Z,95367.16
2019-01-29T07:24:09.636Z,95377.39
2019-01-29T07:26:36.700Z,95378.55
2019-01-29T07:29:03.858Z,95383.79
2019-01-29T07:31:30.900Z,95388.66
2019-01-29T07:34:03.322Z,95386.42
2019-01-29T07:36:30.342Z,95390.80
2019-01-29T07:38:57.893Z,95398.02
2019-01-29T07:41:24.947Z,95400.03
2019-01-29T07:43:51.999Z,95399.02
2019-01-29T07:46:19.030Z,95405.04
2019-01-29T07:48:46.102Z,95406.69
2019-01-29T07:51:13.170Z,95403.32
2019-01-29T07:53:40.225Z,95407.29
2019-01-29T07:56:07.286Z,95405.05
2019-01-29T07:58:34.339Z,95404.97
2019-01-29T08:01:01.451Z,95403.23
2019-01-29T08:03:28.466Z,95402.53
2019-01-29T08:05:55.655Z,95402.98
2019-01-29T08:08:22.692Z,95398.67
2019-01-29T08:10:49.731Z,95402.40
2019-01-29T08:13:16.801Z,95407.80
2019-01-29T08:15:43.844Z,95407.09
2019-01-29T08:18:10.924Z,95407.43
2019-01-29T08:20:37.973Z,95409.02
2019-01-29T08:23:05.027Z,95411.46
2019-01-29T08:25:32.066Z,95411.16
2019-01-29T08:27:59.120Z,95413.61
2019-01-29T08:30:26.157Z,95414.84
2019-01-29T08:32:53.210Z,95410.49
2019-01-29T08:35:20.256Z,95415.39
2019-01-29T08:37:47.310Z,95416.13
2019-01-29T08:40:14.455Z,95424.79
2019-01-29T08:42:41.523Z,95420.34
2019-01-29T08:45:08.655Z,95427.23
2019-01-29T08:47:35.735Z,95426.08
2019-01-29T08:50:04.597Z,95431.09
2019-01-29T08:52:31.658Z,95423.55
2019-01-29T08:54:58.726Z,95433.70
2019-01-29T08:57:25.781Z,95421.09
2019-01-29T08:59:52.849Z,95422.78
2019-01-29T09:02:19.901Z,95416.66
2019-01-29T09:04:46.945Z,95428.39
2019-01-29T09:07:14.045Z,95427.05
2019-01-29T09:09:41.105Z,95436.13
2019-01-29T09:12:08.165Z,95428.64
2019-01-29T09:14:35.207Z,95419.25
2019-01-29T09:17:02.255Z,95425.80
2019-01-29T09:19:29.272Z,95421.66
2019-01-29T09:21:56.311Z,95422.67
2019-01-29T09:24:23.360Z,95417.59
2019-01-29T09:26:50.401Z,95421.97
2019-01-29T09:29:18.019Z,95427.27
2019-01-29T09:31:45.054Z,95421.66
2019-01-29T09:34:12.110Z,95424.57
2019-01-29T09:36:39.167Z,95425.08
2019-01-29T09:39:08.509Z,95424.88
2019-01-29T09:41:35.559Z,95422.13
2019-01-29T09:44:02.592Z,95423.75
2019-01-29T09:46:29.638Z,95419.25
2019-01-29T09:48:56.830Z,95416.19
2019-01-29T09:51:23.907Z,95415.79
2019-01-29T09:53:50.934Z,95419.66
2019-01-29T09:56:17.992Z,95410.56
2019-01-29T09:58:45.033Z,95419.14
2019-01-29T10:01:12.083Z,95422.93
2019-01-29T10:03:39.146Z,95424.88
2019-01-29T10:06:06.226Z,95419.67
2019-01-29T10:08:33.271Z,95421.19
2019-01-29T10:11:00.342Z,95423.52
2019-01-29T10:13:27.380Z,95404.28
2019-01-29T10:15:54.448Z,95401.73
2019-01-29T10:18:21.495Z,95398.08
2019-01-29T10:20:48.532Z,95393.39
2019-01-29T10:23:15.593Z,95398.65
2019-01-29T10:25:42.632Z,95385.62
2019-01-29T10:28:09.710Z,95381.98
2019-01-29T10:30:39.491Z,95383.94
2019-01-29T10:33:06.662Z,95385.47
2019-01-29T10:35:33.704Z,95383.63
2019-01-29T10:38:00.751Z,95369.45
2019-01-29T10:40:27.783Z,95370.12
2019-01-29T10:42:55.127Z,95362.88
2019-01-29T10:45:24.042Z,95368.46
2019-01-29T10:47:51.170Z,95357.44
2019-01-29T10:50:20.075Z,95354.78
2019-01-29T10:52:47.805Z,95351.02
2019-01-29T10:55:15.176Z,95349.39
2019-01-29T10:57:42.330Z,95341.34
2019-01-29T11:00:12.784Z,95341.36
2019-01-29T11:02:39.885Z,95337.17
2019-01-29T11:05:07.898Z,95333.90
2019-01-29T11:07:34.939Z,95324.62
2019-01-29T11:10:02.025Z,95323.69
2019-01-29T11:12:31.933Z,95314.02
2019-01-29T11:14:59.185Z,95316.02
2019-01-29T11:17:26.225Z,95308.55
2019-01-29T11:19:53.380Z,95306.67
2019-01-29T11:22:20.398Z,95311.65
2019-01-29T11:24:47.455Z,95309.03
2019-01-29T11:27:14.514Z,95306.06
2019-01-29T11:29:41.577Z,95295.32
2019-01-29T11:32:08.595Z,95292.58
2019-01-29T11:34:35.671Z,95292.80
2019-01-29T11:37:02.695Z,95295.63
2019-01-29T11:39:32.238Z,95295.63
2019-01-29T11:42:00.693Z,95287.75
2019-01-29T11:44:27.770Z,95282.61
2019-01-29T11:46:59.923Z,95285.48
2019-01-29T11:49:27.493Z,95280.30
2019-01-29T11:51:54.544Z,95284.50
2019-01-29T11:54:21.775Z,95274.70
2019-01-29T11:56:49.064Z,95275.51
2019-01-29T11:59:16.107Z,95276.84
2019-01-29T12:01:43.206Z,95278.03
2019-01-29T12:04:10.238Z,95283.59
2019-01-29T12:06:37.350Z,95275.89
2019-01-29T12:09:07.452Z,95286.07
2019-01-29T12:11:34.535Z,95291.84
2019-01-29T12:14:01.566Z,95290.54
2019-01-29T12:16:28.742Z,95290.75
2019-01-29T12:19:00.090Z,95288.70
2019-01-29T12:21:27.145Z,95286.69
2019-01-29T12:23:55.319Z,95278.91
2019-01-29T12:26:22.352Z,95269.96
2019-01-29T12:28:49.399Z,95259.63
2019-01-29T12:31:16.628Z,95257.50
2019-01-29T12:33:44.114Z,95248.86
2019-01-29T12:36:11.145Z,95251.40
2019-01-29T12:38:38.258Z,95243.18
2019-01-29T12:41:05.299Z,95240.19
2019-01-29T12:43:32.390Z,95237.35
2019-01-29T12:45:59.423Z,95234.35
2019-01-29T12:48:26.480Z,95231.91
2019-01-29T12:50:57.762Z,95231.70
2019-01-29T12:53:29.218Z,95231.48
2019-01-29T12:55:56.241Z,95230.25
2019-01-29T12:58:23.279Z,95228.92
2019-01-29T13:00:53.561Z,95226.44
2019-01-29T13:03:20.621Z,95224.55
2019-01-29T13:05:47.675Z,95222.64
2019-01-29T13:08:14.722Z,95211.77
2019-01-29T13:10:41.767Z,95210.44
2019-01-29T13:13:09.044Z,95206.31
2019-01-29T13:15:36.195Z,95200.28
2019-01-29T13:18:03.739Z,95202.13
2019-01-29T13:20:30.787Z,95188.91
2019-01-29T13:22:57.834Z,95184.48
2019-01-29T13:25:24.983Z,95178.72
2019-01-29T13:27:52.019Z,95172.22
2019-01-29T13:30:25.447Z,95171.33
2019-01-29T13:32:52.559Z,95167.56
2019-01-29T13:35:31.597Z,95163.37
2019-01-29T13:37:58.633Z,95166.23
2019-01-29T13:40:25.820Z,95163.37
2019-01-29T13:42:52.873Z,95161.69
2019-01-29T13:45:19.943Z,95160.12
2019-01-29T13:47:46.984Z,95156.60
2019-01-29T13:50:17.059Z,95159.95
2019-01-29T13:52:44.149Z,95155.38
2019-01-29T13:55:11.837Z,95151.27
2019-01-29T13:57:39.071Z,95154.30
2019-01-29T14:00:12.430Z,95153.73
2019-01-29T14:02:39.518Z,95145.85
2019-01-29T14:05:06.623Z,95142.30
2019-01-29T14:07:33.665Z,95147.45
2019-01-29T14:10:00.699Z,95138.42
2019-01-29T14:12:27.844Z,95127.56
2019-01-29T14:14:54.884Z,95127.70
2019-01-29T14:17:21.938Z,95132.28
2019-01-29T14:19:49.007Z,95133.60
2019-01-29T14:22:16.149Z,95128.81
2019-01-29T14:24:43.578Z,95120.55
2019-01-29T14:27:10.614Z,95120.77
2019-01-29T14:29:37.668Z,95119.91
2019-01-29T14:32:04.730Z,95121.28
2019-01-29T14:34:31.771Z,95119.83
2019-01-29T14:36:58.825Z,95107.11
2019-01-29T14:39:34.470Z,95107.80
2019-01-29T14:42:01.532Z,95102.63
2019-01-29T14:44:34.750Z,95100.05
2019-01-29T14:47:01.782Z,95094.23
2019-01-29T14:49:28.803Z,95095.26
2019-01-29T14:51:55.858Z,95100.41
2019-01-29T14:54:22.953Z,95100.19
2019-01-29T14:56:56.742Z,95094.04
2019-01-29T14:59:18.921Z,95096.39
2019-01-29T15:01:45.969Z,95090.14
2019-01-29T15:04:13.042Z,95089.16
2019-01-29T15:06:40.082Z,95084.20
2019-01-29T15:09:09.764Z,95081.94
2019-01-29T15:11:38.324Z,95079.92
2019-01-29T15:14:05.390Z,95077.49
2019-01-29T15:16:50.467Z,95076.59
2019-01-29T15:19:20.242Z,95067.15
2019-01-29T15:21:48.723Z,95066.11
2019-01-29T15:24:15.922Z,95061.23
2019-01-29T15:26:42.993Z,95056.88
2019-01-29T15:29:10.080Z,95062.09
2019-01-29T15:31:38.747Z,95056.05
2019-01-29T15:34:05.950Z,95055.79
2019-01-29T15:36:33.035Z,95062.23
2019-01-29T15:39:00.111Z,95056.28
2019-01-29T15:41:27.184Z,95055.89
2019-01-29T15:43:54.257Z,95050.72
2019-01-29T15:46:21.349Z,95053.91
2019-01-29T15:48:48.458Z,95055.66
2019-01-29T15:51:15.602Z,95054.97
2019-01-29T15:53:42.819Z,95051.09
2019-01-29T15:56:09.964Z,95050.01
2019-01-29T15:58:37.097Z,95048.74
2019-01-29T16:01:04.192Z,95048.18
2019-01-29T16:03:31.340Z,95040.59
2019-01-29T16:05:58.464Z,95043.24
2019-01-29T16:08:25.591Z,95039.31
2019-01-29T16:10:52.694Z,95039.64
2019-01-29T16:13:19.807Z,95035.57
2019-01-29T16:15:46.934Z,95034.47
2019-01-29T16:18:14.086Z,95033.04
2019-01-29T16:20:41.487Z,95036.28
2019-01-29T16:23:08.589Z,95031.09
2019-01-29T16:25:36.614Z,95028.80
2019-01-29T16:28:03.750Z,95029.16
2019-01-29T16:30:30.908Z,95033.75
2019-01-29T16:32:58.035Z,95023.02
2019-01-29T16:35:27.556Z,95021.80
2019-01-29T16:37:54.664Z,95019.13
2019-01-29T16:40:22.177Z,95025.31
2019-01-29T16:42:49.327Z,95027.45
2019-01-29T16:45:19.850Z,95018.59
2019-01-29T16:47:46.979Z,95023.74
2019-01-29T16:50:14.279Z,95018.30
2019-01-29T16:52:41.416Z,95019.58
2019-01-29T16:55:10.962Z,95019.58
2019-01-29T16:57:38.145Z,95012.88
2019-01-29T17:00:08.571Z,95006.06
2019-01-29T17:02:35.692Z,95008.77
2019-01-29T17:05:03.109Z,95010.63
2019-01-29T17:07:30.265Z,95010.69
2019-01-29T17:09:57.450Z,95008.20
2019-01-29T17:12:24.736Z,95008.59
2019-01-29T17:14:53.053Z,95001.08
2019-01-29T17:17:42.337Z,94999.67
2019-01-29T17:20:32.294Z,94999.86
2019-01-29T17:22:59.438Z,95001.44
2019-01-29T17:25:26.588Z,94997.23
2019-01-29T17:27:53.765Z,94994.73
2019-01-29T17:30:41.110Z,94989.73
2019-01-29T17:33:08.912Z,94985.88
2019-01-29T17:35:37.583Z,94985.14
2019-01-29T17:38:05.557Z,94979.44
2019-01-29T17:40:33.223Z,94974.80
2019-01-29T17:43:00.412Z,94971.63
2019-01-29T17:45:29.815Z,94979.31
2019-01-29T17:47:56.957Z,94971.73
2019-01-29T17:50:26.614Z,94967.41
2019-01-29T17:52:54.434Z,94958.73
2019-01-29T17:55:21.588Z,94954.67
2019-01-29T17:57:50.809Z,94954.13
2019-01-29T18:00:20.984Z,94952.55
2019-01-29T18:02:48.090Z,94956.14
2019-01-29T18:05:15.566Z,94948.80
2019-01-29T18:07:44.131Z,94948.63
2019-01-29T18:10:12.789Z,94942.84
2019-01-29T18:12:42.013Z,94940.66
2019-01-29T18:15:17.471Z,94948.48
2019-01-29T18:17:48.140Z,94941.02
2019-01-29T18:20:14.933Z,94944.33
2019-01-29T18:22:42.512Z,94933.50
2019-01-29T18:25:10.159Z,94934.69
2019-01-29T18:27:37.573Z,94923.55
2019-01-29T18:30:07.602Z,94921.80
2019-01-29T18:32:38.931Z,94921.67
2019-01-29T18:35:07.062Z,94920.73
2019-01-29T18:37:35.882Z,94920.33
2019-01-29T18:40:06.675Z,94907.56
2019-01-29T18:42:34.014Z,94907.44
2019-01-29T18:45:01.308Z,94898.92
2019-01-29T18:47:28.938Z,94896.17
2019-01-29T18:49:56.284Z,94889.98
2019-01-29T18:52:23.981Z,94886.94
2019-01-29T18:54:52.313Z,94884.00
2019-01-29T18:57:19.814Z,94880.25
2019-01-29T18:59:48.283Z,94879.24
2019-01-29T19:02:15.585Z,94878.62
2019-01-29T19:04:43.205Z,94869.61
2019-01-29T19:07:11.033Z,94864.73
2019-01-29T19:09:38.855Z,94866.05
2019-01-29T19:12:09.145Z,94864.80
2019-01-29T19:14:37.959Z,94859.91
2019-01-29T19:17:06.253Z,94860.00
2019-01-29T19:19:37.228Z,94849.88
2019-01-29T19:22:06.299Z,94847.30
2019-01-29T19:24:36.344Z,94850.31
2019-01-29T19:27:05.911Z,94840.17
2019-01-29T19:29:34.714Z,94832.67
2019-01-29T19:32:03.115Z,94838.83
2019-01-29T19:34:33.999Z,94835.76
2019-01-29T19:37:03.389Z,94830.70
2019-01-29T19:39:31.442Z,94824.06
2019-01-29T19:41:59.327Z,94821.59
2019-01-29T19:44:33.693Z,94821.59
2019-01-29T19:47:02.089Z,94824.56
2019-01-29T19:49:31.284Z,94824.43
2019-01-29T19:51:59.564Z,94813.34
2019-01-29T19:54:30.685Z,94809.12
2019-01-29T19:57:03.708Z,94794.78
2019-01-29T19:59:31.300Z,94791.77
2019-01-29T20:02:01.884Z,94791.01
2019-01-29T20:04:29.463Z,94782.32
2019-01-29T20:06:59.805Z,94781.24
2019-01-29T20:09:27.483Z,94782.17
2019-01-29T20:11:55.009Z,94778.97
2019-01-29T20:14:24.393Z,94769.03
2019-01-29T20:16:52.147Z,94768.64
2019-01-29T20:19:20.529Z,94760.06
2019-01-29T20:21:50.110Z,94759.36
2019-01-29T20:24:17.660Z,94757.66
2019-01-29T20:26:47.055Z,94752.02
2019-01-29T20:29:15.650Z,94749.19
2019-01-29T20:31:45.337Z,94742.11
2019-01-29T20:34:12.691Z,94738.28
2019-01-29T20:36:40.402Z,94734.61
2019-01-29T20:39:08.415Z,94731.97
2019-01-29T20:41:37.776Z,94724.70
2019-01-29T20:44:08.335Z,94724.20
2019-01-29T20:46:56.242Z,94725.81
2019-01-29T20:49:23.600Z,94720.56
2019-01-29T20:57:17.392Z,94714.59
2019-01-29T20:59:44.915Z,94705.47
2019-01-29T21:02:19.967Z,94697.36
2019-01-29T21:04:47.257Z,94694.42
2019-01-29T21:07:14.791Z,94691.48
2019-01-29T21:09:42.049Z,94686.92
2019-01-29T21:12:09.318Z,94676.48
2019-01-29T21:14:37.345Z,94676.30
2019-01-29T21:17:05.530Z,94676.27
2019-01-29T21:19:32.808Z,94667.95
2019-01-29T21:21:59.990Z,94662.30
2019-01-29T21:24:27.158Z,94666.58
2019-01-29T21:26:54.332Z,94662.97
2019-01-29T21:29:22.664Z,94653.38
2019-01-29T21:31:50.066Z,94654.85
2019-01-29T21:34:17.223Z,94655.92
2019-01-29T21:36:44.361Z,94647.80
2019-01-29T21:39:11.728Z,94638.41
2019-01-29T21:41:39.124Z,94636.06
2019-01-29T21:44:06.261Z,94633.97
2019-01-29T21:46:33.414Z,94625.85
2019-01-29T21:49:00.557Z,94629.42
2019-01-29T21:51:27.711Z,94621.03
2019-01-29T21:53:55.910Z,94621.22
2019-01-29T21:56:23.044Z,94618.16
2019-01-29T21:58:51.312Z,94612.48
2019-01-29T22:01:18.463Z,94601.92
2019-01-29T22:03:45.599Z,94604.55
2019-01-29T22:06:12.728Z,94599.61
2019-01-29T22:08:39.838Z,94596.37
2019-01-29T22:11:06.970Z,94593.84
2019-01-29T22:13:34.098Z,94585.53
2019-01-29T22:16:01.207Z,94590.84
2019-01-29T22:18:28.297Z,94580.73
2019-01-29T22:20:55.366Z,94586.48
2019-01-29T22:23:22.444Z,94573.86
2019-01-29T22:25:49.811Z,94566.62
2019-01-29T22:28:16.863Z,94572.86
2019-01-29T22:30:43.919Z,94565.97
2019-01-29T22:33:10.982Z,94573.28
2019-01-29T22:35:38.059Z,94554.36
2019-01-29T22:38:05.476Z,94554.42
2019-01-29T22:40:32.531Z,94557.02
2019-01-29T22:42:59.625Z,94552.52
2019-01-29T22:45:26.684Z,94548.83
2019-01-29T22:47:53.755Z,94546.30
2019-01-29T22:50:28.844Z,94547.98
2019-01-29T22:52:55.875Z,94546.98
2019-01-29T22:55:22.944Z,94544.24
2019-01-29T22:57:50.011Z,94538.88
2019-01-29T23:01:08.462Z,94532.01
2019-01-29T23:03:38.892Z,94520.41
2019-01-29T23:06:34.413Z,94521.78
2019-01-29T23:09:01.475Z,94517.03
2019-01-29T23:11:28.548Z,94513.41
2019-01-29T23:13:55.616Z,94506.49
2019-01-29T23:16:22.713Z,94496.52
2019-01-29T23:18:49.758Z,94492.08
2019-01-29T23:21:16.820Z,94490.83
2019-01-29T23:23:43.888Z,94480.75
2019-01-29T23:26:10.917Z,94480.45
2019-01-29T23:28:37.980Z,94464.41
2019-01-29T23:31:05.029Z,94461.80
2019-01-29T23:33:32.080Z,94456.92
2019-01-29T23:35:59.133Z,94457.30
2019-01-29T23:38:26.198Z,94455.24
2019-01-29T23:40:53.250Z,94454.30
2019-01-29T23:43:20.297Z,94448.51
2019-01-29T23:45:47.345Z,94441.52
2019-01-29T23:48:14.422Z,94439.42
2019-01-29T23:50:41.463Z,94431.19
2019-01-29T23:53:08.530Z,94425.27
2019-01-29T23:55:35.570Z,94417.71
2019-01-29T23:58:02.618Z,94412.84
